createdAt,value
2023-05-22T00:00:24.749Z,8.18
2023-05-22T00:05:26.471Z,7.95
2023-05-22T00:10:28.182Z,8.07
2023-05-22T00:15:29.918Z,8.00
2023-05-22T00:20:31.617Z,7.43
2023-05-22T00:25:33.265Z,7.57
2023-05-22T00:30:35.145Z,6.78
2023-05-22T00:35:36.801Z,7.20
2023-05-22T00:40:38.629Z,7.20
2023-05-22T00:45:40.523Z,6.97
2023-05-22T00:50:42.743Z,7.35
2023-05-22T00:55:44.877Z,7.18
2023-05-22T01:00:48.369Z,7.03
2023-05-22T01:05:51.790Z,7.03
2023-05-22T01:11:01.027Z,6.97
2023-05-22T01:16:19.001Z,6.20
2023-05-22T01:21:46.235Z,6.65
2023-05-22T01:27:28.472Z,6.53
2023-05-22T01:32:32.401Z,6.45
2023-05-22T01:37:36.204Z,6.85
2023-05-22T01:42:41.149Z,6.22
2023-05-22T01:47:43.506Z,6.55
2023-05-22T01:53:13.545Z,6.50
2023-05-22T01:58:20.610Z,7.10
2023-05-22T02:03:27.361Z,6.35
2023-05-22T02:08:31.144Z,6.38
2023-05-22T02:13:34.348Z,6.03
2023-05-22T02:18:36.070Z,6.18
2023-05-22T02:23:38.036Z,6.30
2023-05-22T02:28:42.880Z,6.35
2023-05-22T02:33:45.030Z,6.22
2023-05-22T02:38:46.763Z,6.00
2023-05-22T02:43:48.678Z,5.78
2023-05-22T02:48:50.446Z,5.70
2023-05-22T02:53:53.585Z,5.75
2023-05-22T02:58:56.635Z,6.53
2023-05-22T03:03:58.412Z,5.72
2023-05-22T03:09:00.439Z,5.40
2023-05-22T03:14:02.151Z,5.80
2023-05-22T03:19:11.066Z,6.07
2023-05-22T03:24:13.135Z,5.80
2023-05-22T03:29:15.148Z,5.57
2023-05-22T03:34:18.021Z,5.93
2023-05-22T03:39:22.468Z,6.32
2023-05-22T03:44:31.026Z,4.88
2023-05-22T03:49:32.870Z,6.05
2023-05-22T03:54:34.510Z,5.93
2023-05-22T03:59:38.232Z,6.35
2023-05-22T04:04:39.990Z,6.22
2023-05-22T04:09:41.697Z,6.13
2023-05-22T04:14:43.365Z,5.85
2023-05-22T04:19:45.021Z,6.88
2023-05-22T04:24:49.147Z,6.30
2023-05-22T04:29:51.226Z,6.10
2023-05-22T04:34:53.060Z,6.28
2023-05-22T04:39:58.283Z,6.40
2023-05-22T04:45:00.998Z,6.68
2023-05-22T04:50:02.679Z,5.90
2023-05-22T04:55:06.782Z,6.10
2023-05-22T05:00:09.285Z,6.43
2023-05-22T05:05:12.771Z,5.50
2023-05-22T05:10:14.792Z,5.78
2023-05-22T05:15:16.932Z,5.47
2023-05-22T05:20:18.990Z,7.15
2023-05-22T05:25:20.672Z,5.70
2023-05-22T05:30:22.398Z,6.32
2023-05-22T05:35:43.025Z,8.20
2023-05-22T05:40:47.990Z,8.30
2023-05-22T05:45:51.392Z,8.63
2023-05-22T05:50:53.179Z,8.90
2023-05-22T05:55:55.124Z,8.70
2023-05-22T06:00:58.274Z,9.48
2023-05-22T06:06:01.059Z,10.35
2023-05-22T06:11:28.808Z,9.80
2023-05-22T06:16:30.879Z,9.57
2023-05-22T06:21:33.030Z,10.05
2023-05-22T06:26:34.861Z,10.70
2023-05-22T06:31:38.508Z,10.90
2023-05-22T06:36:42.279Z,10.88
2023-05-22T06:41:45.282Z,12.40
2023-05-22T06:46:48.467Z,12.25
2023-05-22T06:51:57.189Z,12.38
2023-05-22T06:56:59.546Z,13.07
2023-05-22T07:02:03.166Z,12.63
2023-05-22T07:07:12.302Z,12.95
2023-05-22T07:12:14.639Z,13.02
2023-05-22T07:17:16.348Z,12.30
2023-05-22T07:22:19.974Z,12.45
2023-05-22T07:27:23.229Z,13.00
2023-05-22T07:32:25.079Z,13.40
2023-05-22T07:37:30.097Z,13.20
2023-05-22T07:42:32.297Z,13.13
2023-05-22T07:47:34.144Z,12.57
2023-05-22T07:52:36.054Z,13.30
2023-05-22T07:57:39.810Z,13.20
2023-05-22T08:02:51.204Z,13.23
2023-05-22T08:07:52.904Z,13.32
2023-05-22T08:12:54.544Z,13.82
2023-05-22T08:17:56.276Z,14.57
2023-05-22T08:22:58.008Z,14.20
2023-05-22T08:27:59.895Z,14.73
2023-05-22T08:33:01.602Z,13.80
2023-05-22T08:38:03.427Z,14.45
2023-05-22T08:43:06.208Z,13.95
2023-05-22T08:48:12.965Z,14.43
2023-05-22T08:53:16.406Z,14.48
2023-05-22T08:58:18.850Z,14.93
2023-05-22T09:03:21.664Z,14.07
2023-05-22T09:08:24.177Z,14.18
2023-05-22T09:13:28.081Z,13.75
2023-05-22T09:18:30.265Z,14.07
2023-05-22T09:23:32.330Z,13.55
2023-05-22T09:28:38.102Z,14.35
2023-05-22T09:33:39.766Z,13.65
2023-05-22T09:38:41.549Z,14.02
2023-05-22T09:43:50.804Z,14.80
2023-05-22T09:48:52.956Z,14.52
2023-05-22T09:54:03.482Z,14.23
2023-05-22T09:59:09.726Z,14.35
2023-05-22T10:04:16.464Z,14.52
2023-05-22T10:09:20.613Z,14.40
2023-05-22T10:14:23.692Z,14.52
2023-05-22T10:19:27.817Z,13.95
2023-05-22T10:24:29.955Z,13.93
2023-05-22T10:29:38.421Z,13.77
2023-05-22T10:34:54.107Z,14.20
2023-05-22T10:40:11.975Z,14.82
2023-05-22T10:45:13.792Z,14.55
2023-05-22T10:50:17.758Z,15.05
2023-05-22T10:55:22.762Z,15.27
2023-05-22T11:00:24.562Z,14.20
2023-05-22T11:05:30.594Z,14.50
2023-05-22T11:10:54.999Z,14.55
2023-05-22T11:15:57.803Z,14.48
2023-05-22T11:21:00.806Z,14.05
2023-05-22T11:26:22.610Z,14.55
2023-05-22T11:31:26.469Z,13.93
2023-05-22T11:36:29.097Z,14.80
2023-05-22T11:41:34.392Z,14.10
2023-05-22T11:46:36.161Z,14.73
2023-05-22T11:51:40.021Z,14.80
2023-05-22T11:56:41.748Z,14.15
2023-05-22T12:01:43.353Z,14.60
2023-05-22T12:06:45.106Z,14.20
2023-05-22T12:11:48.109Z,14.63
2023-05-22T12:16:52.981Z,14.63
2023-05-22T12:21:54.717Z,13.98
2023-05-22T12:26:56.605Z,14.70
2023-05-22T12:32:03.285Z,15.25
2023-05-22T12:37:05.016Z,14.93
2023-05-22T12:42:08.612Z,15.20
2023-05-22T12:47:10.255Z,15.18
2023-05-22T12:52:11.948Z,14.73
2023-05-22T12:57:13.870Z,14.73
2023-05-22T13:02:15.575Z,14.38
2023-05-22T13:07:17.163Z,15.35
2023-05-22T13:12:19.304Z,15.20
2023-05-22T13:17:21.271Z,15.52
2023-05-22T13:22:23.682Z,15.20
2023-05-22T13:27:25.330Z,15.15
2023-05-22T13:32:27.113Z,15.00
2023-05-22T13:37:28.813Z,14.73
2023-05-22T13:42:30.530Z,14.82
2023-05-22T13:47:32.177Z,14.77
2023-05-22T13:52:33.972Z,15.07
2023-05-22T13:57:36.987Z,15.23
2023-05-22T14:02:38.753Z,15.50
2023-05-22T14:07:40.595Z,15.25
2023-05-22T14:12:42.224Z,15.77
2023-05-22T14:17:43.869Z,15.38
2023-05-22T14:22:56.542Z,15.15
2023-05-22T14:27:59.259Z,15.95
2023-05-22T14:33:00.951Z,15.52
2023-05-22T14:38:02.645Z,15.77
2023-05-22T14:43:04.328Z,15.73
2023-05-22T14:48:06.741Z,15.73
2023-05-22T14:53:09.414Z,15.68
2023-05-22T14:58:11.109Z,16.35
2023-05-22T15:03:12.915Z,15.98
2023-05-22T15:08:14.639Z,16.35
2023-05-22T15:13:16.421Z,16.38
2023-05-22T15:18:19.761Z,16.00
2023-05-22T15:23:25.052Z,16.95
2023-05-22T15:28:26.806Z,16.60
2023-05-22T15:33:28.482Z,17.10
2023-05-22T15:38:30.286Z,16.30
2023-05-22T15:43:31.947Z,15.60
2023-05-22T15:48:33.560Z,16.63
2023-05-22T15:53:35.453Z,16.17
2023-05-22T15:58:37.071Z,16.30
2023-05-22T16:03:38.872Z,16.30
2023-05-22T16:08:41.852Z,16.35
2023-05-22T16:13:43.603Z,17.00
2023-05-22T16:18:45.307Z,16.42
2023-05-22T16:23:47.030Z,16.05
2023-05-22T16:28:48.644Z,15.90
2023-05-22T16:33:50.280Z,16.60
2023-05-22T16:38:51.883Z,16.42
2023-05-22T16:43:53.656Z,16.10
2023-05-22T16:48:55.481Z,15.75
2023-05-22T16:53:57.083Z,16.13
2023-05-22T16:58:58.761Z,16.42
2023-05-22T17:04:00.450Z,16.67
2023-05-22T17:09:02.206Z,16.27
2023-05-22T17:14:04.375Z,16.40
2023-05-22T17:19:06.454Z,16.85
2023-05-22T17:24:11.612Z,16.58
2023-05-22T17:29:15.032Z,16.33
2023-05-22T17:34:16.699Z,17.30
2023-05-22T17:39:18.320Z,16.67
2023-05-22T17:44:19.924Z,16.85
2023-05-22T17:49:21.534Z,16.33
2023-05-22T17:54:23.221Z,16.27
2023-05-22T17:59:24.823Z,16.52
2023-05-22T18:04:26.469Z,16.63
2023-05-22T18:09:28.200Z,16.65
2023-05-22T18:14:29.831Z,16.75
2023-05-22T18:19:31.507Z,16.20
2023-05-22T18:24:33.167Z,16.30
2023-05-22T18:29:34.854Z,16.65
2023-05-22T18:34:37.583Z,16.58
2023-05-22T18:39:39.198Z,16.27
2023-05-22T18:44:40.876Z,16.08
2023-05-22T18:49:42.557Z,15.80
2023-05-22T18:54:44.274Z,15.30
2023-05-22T18:59:46.233Z,15.18
2023-05-22T19:04:48.981Z,15.80
2023-05-22T19:09:50.846Z,15.68
2023-05-22T19:14:52.626Z,14.85
2023-05-22T19:19:54.451Z,14.80
2023-05-22T19:24:56.184Z,15.02
2023-05-22T19:29:57.849Z,15.05
2023-05-22T19:34:59.430Z,14.55
2023-05-22T19:40:01.194Z,15.38
2023-05-22T19:45:03.414Z,14.68
2023-05-22T19:50:05.948Z,14.98
2023-05-22T19:55:09.472Z,14.60
2023-05-22T20:00:12.247Z,14.27
2023-05-22T20:05:13.980Z,14.27
2023-05-22T20:10:16.120Z,14.18
2023-05-22T20:15:17.770Z,14.05
2023-05-22T20:20:20.332Z,14.30
2023-05-22T20:25:22.015Z,13.52
2023-05-22T20:30:23.735Z,13.30
2023-05-22T20:35:26.492Z,11.52
2023-05-22T20:40:29.718Z,10.38
2023-05-22T20:45:31.459Z,8.82
2023-05-22T20:50:36.147Z,7.70
2023-05-22T20:55:39.313Z,8.43
2023-05-22T21:00:42.036Z,7.60
2023-05-22T21:05:43.955Z,7.30
2023-05-22T21:10:45.738Z,7.72
2023-05-22T21:15:47.388Z,8.02
2023-05-22T21:20:49.058Z,7.32
2023-05-22T21:25:50.735Z,7.07
2023-05-22T21:30:52.409Z,7.75
2023-05-22T21:35:54.072Z,7.75
2023-05-22T21:40:55.776Z,8.10
2023-05-22T21:45:57.471Z,8.75
2023-05-22T21:50:59.415Z,7.47
2023-05-22T21:56:01.282Z,7.07
2023-05-22T22:01:03.073Z,7.10
2023-05-22T22:06:05.055Z,6.80
2023-05-22T22:11:06.970Z,6.10
2023-05-22T22:16:08.821Z,4.55
2023-05-22T22:21:10.572Z,4.97
2023-05-22T22:26:12.723Z,3.80
2023-05-22T22:31:14.398Z,3.33
2023-05-22T22:36:16.947Z,3.00
2023-05-22T22:41:18.632Z,3.08
2023-05-22T22:46:21.804Z,2.78
2023-05-22T22:51:24.648Z,3.10
2023-05-22T22:56:29.438Z,2.75
2023-05-22T23:01:31.422Z,2.47
2023-05-22T23:06:34.601Z,2.67
2023-05-22T23:11:39.592Z,3.08
2023-05-22T23:16:41.350Z,3.78
2023-05-22T23:21:43.095Z,3.80
2023-05-22T23:26:44.821Z,3.78
2023-05-22T23:31:47.512Z,3.17
2023-05-22T23:36:49.246Z,3.55
2023-05-22T23:41:54.079Z,3.40
2023-05-22T23:46:56.608Z,3.72
2023-05-22T23:51:58.234Z,3.00
2023-05-22T23:56:59.883Z,3.28
